createdAt,value
2022-10-19T07:34:57.087Z,2776.00
2022-10-19T07:35:56.776Z,2720.00
2022-10-19T07:36:56.773Z,2756.00
2022-10-19T07:37:56.750Z,2548.00
2022-10-19T07:38:56.768Z,2636.00
2022-10-19T07:39:56.778Z,2804.00
2022-10-19T07:40:56.926Z,3016.00
2022-10-19T07:41:56.942Z,3416.00
2022-10-19T07:42:56.731Z,4160.00
2022-10-19T07:43:56.741Z,13728.00
2022-10-19T07:44:56.702Z,13176.00
2022-10-19T07:45:56.888Z,5004.00
2022-10-19T07:46:56.925Z,4260.00
2022-10-19T07:47:56.681Z,3952.00
2022-10-19T07:48:56.697Z,3716.00
2022-10-19T07:49:56.704Z,3520.00
2022-10-19T07:50:56.692Z,3496.00
2022-10-19T07:51:56.652Z,3512.00
2022-10-19T07:52:56.631Z,3680.00
2022-10-19T07:53:56.848Z,3828.00
2022-10-19T07:54:56.664Z,4172.00
2022-10-19T07:55:56.629Z,4304.00
2022-10-19T07:56:56.625Z,4464.00
2022-10-19T07:57:56.630Z,4688.00
2022-10-19T07:58:56.658Z,5024.00
2022-10-19T07:59:56.594Z,5008.00
2022-10-19T08:00:56.574Z,4628.00
2022-10-19T08:01:56.591Z,3784.00
2022-10-19T08:03:19.349Z,3408.00
2022-10-19T08:04:43.292Z,3220.00
2022-10-19T08:05:01.318Z,3064.00
2022-10-19T08:05:56.572Z,3052.00
2022-10-19T08:06:56.844Z,3080.00
2022-10-19T08:07:56.771Z,3132.00
2022-10-19T08:08:56.928Z,3012.00
2022-10-19T08:09:56.787Z,2972.00
2022-10-19T08:10:56.547Z,2912.00
2022-10-19T08:11:56.845Z,2896.00
2022-10-19T08:12:56.747Z,2944.00
2022-10-19T08:13:56.454Z,2976.00
2022-10-19T08:14:56.831Z,3284.00
2022-10-19T08:15:56.507Z,3740.00
2022-10-19T08:16:56.571Z,4292.00
2022-10-19T08:17:56.647Z,4472.00
2022-10-19T08:18:56.812Z,5016.00
2022-10-19T08:19:56.720Z,5432.00
2022-10-19T08:20:56.621Z,6000.00
2022-10-19T08:21:56.395Z,7020.00
2022-10-19T08:22:58.965Z,9292.00
2022-10-19T08:23:56.434Z,25344.00
2022-10-19T08:24:56.740Z,32768.00
2022-10-19T08:25:56.433Z,15332.00
2022-10-19T08:26:56.687Z,10728.00
2022-10-19T08:27:56.458Z,8656.00
2022-10-19T08:28:56.378Z,8872.00
2022-10-19T08:29:56.430Z,10176.00
2022-10-19T08:30:56.378Z,11196.00
2022-10-19T08:31:56.404Z,12264.00
2022-10-19T08:32:56.367Z,16192.00
2022-10-19T08:33:56.512Z,33120.00
2022-10-19T08:34:56.595Z,25888.00
2022-10-19T08:35:56.436Z,18816.00
2022-10-19T08:36:56.569Z,19616.00
2022-10-19T08:37:58.545Z,11328.00
2022-10-19T08:38:56.399Z,20064.00
2022-10-19T08:39:56.496Z,13804.00
2022-10-19T08:40:56.265Z,11360.00
2022-10-19T08:41:56.275Z,9968.00
2022-10-19T08:42:56.273Z,9940.00
2022-10-19T08:43:56.250Z,10460.00
2022-10-19T08:44:56.251Z,9612.00
2022-10-19T08:45:56.265Z,9396.00
2022-10-19T08:46:56.452Z,9680.00
2022-10-19T08:47:56.309Z,9900.00
2022-10-19T08:48:56.237Z,9972.00
2022-10-19T08:49:56.253Z,9936.00
2022-10-19T08:50:56.466Z,9744.00
2022-10-19T08:51:56.245Z,9908.00
2022-10-19T08:52:56.491Z,11112.00
2022-10-19T08:53:56.219Z,10088.00
2022-10-19T08:54:56.277Z,10352.00
2022-10-19T08:55:57.843Z,9356.00
2022-10-19T08:56:56.197Z,8592.00
2022-10-19T08:57:56.203Z,7980.00
2022-10-19T08:58:56.205Z,7604.00
2022-10-19T08:59:56.163Z,8000.00
2022-10-19T09:00:56.202Z,6016.00
2022-10-19T09:01:56.224Z,5348.00
2022-10-19T09:02:56.225Z,4684.00
2022-10-19T09:03:56.750Z,4252.00
2022-10-19T09:04:56.257Z,4020.00
2022-10-19T09:05:56.264Z,3820.00
2022-10-19T09:06:56.383Z,3768.00
2022-10-19T09:07:56.344Z,3768.00
2022-10-19T09:08:56.424Z,3792.00
2022-10-19T09:09:56.160Z,3756.00
2022-10-19T09:10:56.133Z,3644.00
2022-10-19T09:11:56.090Z,3436.00
2022-10-19T09:12:58.434Z,3328.00
2022-10-19T09:14:06.120Z,3312.00
2022-10-19T09:14:56.133Z,3336.00
2022-10-19T09:15:56.079Z,3140.00
2022-10-19T09:16:56.077Z,2752.00
2022-10-19T09:17:56.116Z,2492.00
2022-10-19T09:18:56.563Z,2520.00
2022-10-19T09:19:56.081Z,2588.00
2022-10-19T09:20:56.068Z,2632.00
2022-10-19T09:21:56.109Z,2524.00
2022-10-19T09:22:56.037Z,2368.00
2022-10-19T09:23:56.048Z,2204.00
2022-10-19T09:24:56.033Z,2068.00
2022-10-19T09:25:55.997Z,2052.00
2022-10-19T09:26:56.071Z,2068.00
2022-10-19T09:27:56.060Z,2128.00
2022-10-19T09:28:55.996Z,2232.00
2022-10-19T09:29:56.044Z,2388.00
2022-10-19T09:30:55.966Z,2404.00
2022-10-19T09:31:56.031Z,2412.00
2022-10-19T09:32:55.961Z,2344.00
2022-10-19T09:33:55.993Z,2280.00
2022-10-19T09:34:55.985Z,2272.00
2022-10-19T09:35:55.955Z,2272.00
2022-10-19T09:36:56.162Z,2288.00
2022-10-19T09:37:55.933Z,2312.00
2022-10-19T09:38:55.937Z,2328.00
2022-10-19T09:39:56.290Z,2376.00
2022-10-19T09:40:55.913Z,2440.00
2022-10-19T09:41:55.891Z,2484.00
2022-10-19T09:42:56.167Z,2492.00
2022-10-19T09:43:55.887Z,2436.00
2022-10-19T09:44:56.501Z,2340.00
2022-10-19T09:45:55.909Z,2264.00
2022-10-19T09:46:55.876Z,2288.00
2022-10-19T09:47:58.267Z,2304.00
2022-10-19T09:48:56.265Z,2328.00
2022-10-19T09:49:55.862Z,2392.00
2022-10-19T09:50:55.834Z,2460.00
2022-10-19T09:51:55.830Z,2548.00
2022-10-19T09:52:55.847Z,2568.00
2022-10-19T09:53:55.817Z,2624.00
2022-10-19T09:54:55.813Z,2660.00
2022-10-19T09:55:55.867Z,2772.00
2022-10-19T09:56:56.000Z,2972.00
2022-10-19T09:57:55.779Z,3112.00
2022-10-19T09:58:55.896Z,3284.00
2022-10-19T09:59:55.828Z,3540.00
2022-10-19T10:00:55.991Z,3892.00
2022-10-19T10:01:55.850Z,4164.00
2022-10-19T10:02:55.745Z,4196.00
2022-10-19T10:03:56.065Z,3840.00
2022-10-19T10:04:55.723Z,3600.00
2022-10-19T10:05:55.777Z,3312.00
2022-10-19T10:06:55.744Z,3044.00
2022-10-19T10:07:55.905Z,2840.00
2022-10-19T10:08:55.730Z,2684.00
2022-10-19T10:09:55.699Z,2512.00
2022-10-19T10:10:55.696Z,2448.00
2022-10-19T10:12:55.638Z,2360.00
2022-10-19T10:13:55.650Z,2600.00
2022-10-19T10:14:55.779Z,2244.00
2022-10-19T10:15:55.633Z,2112.00
2022-10-19T10:16:55.605Z,2096.00
2022-10-19T10:17:55.618Z,2112.00
2022-10-19T10:18:55.593Z,2128.00
2022-10-19T10:19:55.609Z,2160.00
2022-10-19T10:20:55.593Z,2192.00
2022-10-19T10:21:55.613Z,2200.00
2022-10-19T10:22:55.559Z,2216.00
2022-10-19T10:23:55.796Z,2268.00
2022-10-19T10:24:55.963Z,2324.00
2022-10-19T10:25:55.778Z,2372.00
2022-10-19T10:26:55.756Z,2384.00
2022-10-19T10:27:55.555Z,2416.00
2022-10-19T10:28:57.922Z,2436.00
2022-10-19T10:30:55.540Z,2396.00
2022-10-19T10:31:55.508Z,2372.00
2022-10-19T10:32:56.599Z,2340.00
2022-10-19T10:33:55.622Z,2284.00
2022-10-19T10:34:58.425Z,2256.00
2022-10-19T10:35:55.493Z,2248.00
2022-10-19T10:36:55.475Z,2240.00
2022-10-19T10:37:55.495Z,2228.00
2022-10-19T10:38:55.526Z,2216.00
2022-10-19T10:39:57.789Z,2204.00
2022-10-19T10:40:55.464Z,2164.00
2022-10-19T10:41:55.441Z,2108.00
2022-10-19T10:42:55.416Z,2040.00
2022-10-19T10:43:56.749Z,1996.00
2022-10-19T10:44:55.415Z,1948.00
2022-10-19T10:45:55.408Z,1928.00
2022-10-19T10:46:55.606Z,1924.00
2022-10-19T10:47:55.436Z,1932.00
2022-10-19T10:48:55.426Z,1924.00
2022-10-19T10:49:55.368Z,1904.00
2022-10-19T10:50:55.390Z,1896.00
2022-10-19T10:51:55.401Z,1880.00
2022-10-19T10:52:55.406Z,1848.00
2022-10-19T10:53:55.368Z,1828.00
2022-10-19T10:54:55.315Z,1800.00
2022-10-19T10:55:55.356Z,1772.00
2022-10-19T10:56:55.502Z,1748.00
2022-10-19T10:57:55.307Z,1776.00
2022-10-19T10:58:55.280Z,1796.00
2022-10-19T10:59:55.308Z,1792.00
2022-10-19T11:00:55.312Z,1788.00
2022-10-19T11:01:55.365Z,1784.00
2022-10-19T11:02:55.290Z,1776.00
2022-10-19T11:03:55.287Z,1776.00
2022-10-19T11:04:55.255Z,1780.00
2022-10-19T11:05:55.256Z,1788.00
2022-10-19T11:06:55.270Z,1796.00
2022-10-19T11:07:55.246Z,1804.00
2022-10-19T11:08:55.337Z,1820.00
2022-10-19T11:09:55.195Z,1832.00
2022-10-19T11:10:55.407Z,1848.00
2022-10-19T11:11:55.177Z,1860.00
2022-10-19T11:12:55.231Z,1876.00
2022-10-19T11:13:55.172Z,1912.00
2022-10-19T11:14:55.167Z,1952.00
2022-10-19T11:15:55.176Z,1988.00
2022-10-19T11:16:55.178Z,2044.00
2022-10-19T11:17:55.125Z,2088.00
2022-10-19T11:18:55.195Z,2136.00
2022-10-19T11:19:55.234Z,2176.00
2022-10-19T11:20:55.139Z,2240.00
2022-10-19T11:21:55.351Z,2280.00
2022-10-19T11:22:55.127Z,2304.00
2022-10-19T11:23:55.074Z,2356.00
2022-10-19T11:24:55.103Z,2440.00
2022-10-19T11:25:55.074Z,2544.00
2022-10-19T11:26:55.252Z,2632.00
2022-10-19T11:27:55.047Z,2708.00
2022-10-19T11:28:55.074Z,2740.00
2022-10-19T11:29:55.068Z,2752.00
2022-10-19T11:30:55.031Z,2816.00
2022-10-19T11:31:55.031Z,2920.00
2022-10-19T11:32:55.028Z,2976.00
2022-10-19T11:33:54.989Z,2896.00
2022-10-19T11:34:55.006Z,2916.00
2022-10-19T11:35:55.094Z,2920.00
2022-10-19T11:36:54.986Z,2888.00
2022-10-19T11:38:18.174Z,2920.00
2022-10-19T11:38:54.980Z,2956.00
2022-10-19T11:39:54.977Z,2956.00
2022-10-19T11:41:54.950Z,3040.00
2022-10-19T11:42:54.956Z,3076.00
2022-10-19T11:43:54.918Z,3100.00
2022-10-19T11:44:55.115Z,3108.00
2022-10-19T11:45:54.906Z,3056.00
2022-10-19T11:46:55.128Z,3012.00
2022-10-19T11:47:54.911Z,3024.00
2022-10-19T11:48:55.118Z,3048.00
2022-10-19T11:49:54.981Z,3068.00
2022-10-19T11:50:58.974Z,3096.00
2022-10-19T11:51:54.879Z,3128.00
2022-10-19T11:52:54.886Z,3112.00
2022-10-19T11:53:54.860Z,3120.00
2022-10-19T11:54:55.057Z,3128.00
2022-10-19T11:55:54.869Z,3080.00
2022-10-19T11:57:04.749Z,2988.00
2022-10-19T11:57:54.813Z,2892.00
2022-10-19T11:58:54.834Z,2820.00
2022-10-19T12:00:00.211Z,2716.00
2022-10-19T12:00:54.786Z,2572.00
2022-10-19T12:01:54.896Z,2464.00
2022-10-19T12:02:54.973Z,2524.00
2022-10-19T12:03:54.745Z,2500.00
2022-10-19T12:04:54.759Z,2452.00
2022-10-19T12:05:54.760Z,2360.00
2022-10-19T12:06:54.891Z,2276.00
2022-10-19T12:07:54.796Z,2224.00
2022-10-19T12:08:56.224Z,2192.00
2022-10-19T12:09:54.742Z,2184.00
2022-10-19T12:10:54.718Z,2176.00
2022-10-19T12:11:54.703Z,2168.00
2022-10-19T12:12:54.710Z,2172.00
2022-10-19T12:13:54.716Z,2188.00
2022-10-19T12:14:54.720Z,2204.00
2022-10-19T12:15:54.674Z,2196.00
2022-10-19T12:16:54.699Z,2156.00
2022-10-19T12:17:54.670Z,2128.00
2022-10-19T12:18:54.655Z,2096.00
2022-10-19T12:19:54.705Z,2056.00
2022-10-19T12:20:54.656Z,2036.00
2022-10-19T12:21:54.652Z,2040.00
2022-10-19T12:23:54.658Z,2068.00
2022-10-19T12:24:54.633Z,2088.00
2022-10-19T12:25:54.611Z,2100.00
2022-10-19T12:26:54.639Z,2092.00
2022-10-19T12:27:54.614Z,2072.00
2022-10-19T12:28:54.599Z,2056.00
2022-10-19T12:29:54.570Z,2072.00
2022-10-19T12:30:54.555Z,2052.00
2022-10-19T12:31:54.579Z,1976.00
2022-10-19T12:32:54.739Z,1920.00
2022-10-19T12:33:54.552Z,1864.00
2022-10-19T12:34:54.533Z,1804.00
2022-10-19T12:35:54.548Z,1788.00
2022-10-19T12:37:27.736Z,1776.00
2022-10-19T12:37:54.493Z,1744.00
2022-10-19T12:39:00.095Z,1672.00
2022-10-19T12:39:54.565Z,1672.00
2022-10-19T12:40:54.480Z,1708.00
2022-10-19T12:41:54.449Z,1728.00
2022-10-19T12:42:54.466Z,1712.00
2022-10-19T12:43:54.465Z,1712.00
2022-10-19T12:44:57.750Z,1684.00
2022-10-19T12:45:54.446Z,1664.00
2022-10-19T12:46:56.457Z,1724.00
2022-10-19T12:47:54.427Z,1732.00
2022-10-19T12:48:54.648Z,1700.00
2022-10-19T12:49:54.427Z,1680.00
2022-10-19T12:50:54.387Z,2568.00
2022-10-19T12:51:54.395Z,1900.00
2022-10-19T12:52:54.392Z,1764.00
2022-10-19T12:53:54.380Z,1844.00
2022-10-19T12:54:54.570Z,1760.00
2022-10-19T12:55:54.407Z,1760.00
2022-10-19T12:56:54.556Z,1776.00
2022-10-19T12:57:54.772Z,1776.00
2022-10-19T12:58:54.370Z,1780.00
2022-10-19T12:59:54.520Z,1804.00
2022-10-19T13:00:54.426Z,1872.00
2022-10-19T13:01:54.372Z,1940.00
2022-10-19T13:02:54.330Z,1972.00
2022-10-19T13:03:54.291Z,1968.00
2022-10-19T13:04:54.276Z,1960.00
2022-10-19T13:05:54.275Z,1960.00
2022-10-19T13:06:54.270Z,1956.00
2022-10-19T13:07:54.289Z,1928.00
2022-10-19T13:08:54.347Z,1908.00
2022-10-19T13:09:54.256Z,1852.00
2022-10-19T13:10:54.444Z,1800.00
2022-10-19T13:11:54.496Z,1812.00
2022-10-19T13:12:54.248Z,1836.00
2022-10-19T13:13:54.229Z,1848.00
2022-10-19T13:14:54.231Z,1828.00
2022-10-19T13:15:54.205Z,1812.00
2022-10-19T13:16:54.196Z,1796.00
2022-10-19T13:17:54.424Z,1824.00
2022-10-19T13:18:54.193Z,1860.00
2022-10-19T13:19:54.173Z,1856.00
2022-10-19T13:20:54.146Z,1840.00
2022-10-19T13:21:54.176Z,1836.00
2022-10-19T13:22:54.163Z,1796.00
2022-10-19T13:23:54.319Z,1728.00
2022-10-19T13:24:54.186Z,1720.00
2022-10-19T13:25:54.134Z,1676.00
2022-10-19T13:26:54.149Z,1604.00
2022-10-19T13:27:54.111Z,1652.00
2022-10-19T13:28:54.106Z,1704.00
2022-10-19T13:29:54.100Z,1704.00
2022-10-19T13:30:58.367Z,1696.00
2022-10-19T13:31:54.070Z,1652.00
2022-10-19T13:32:54.071Z,1600.00
2022-10-19T13:33:54.040Z,1544.00
2022-10-19T13:34:54.037Z,1472.00
2022-10-19T13:35:54.053Z,1372.00
2022-10-19T13:36:54.272Z,1300.00
2022-10-19T13:37:54.035Z,1244.00
2022-10-19T13:38:54.200Z,1236.00
2022-10-19T13:39:54.192Z,1276.00
2022-10-19T13:40:54.007Z,1300.00
2022-10-19T13:41:54.401Z,1252.00
2022-10-19T13:42:53.978Z,1252.00
2022-10-19T13:43:53.987Z,1264.00
2022-10-19T13:44:53.981Z,1284.00
2022-10-19T13:45:53.964Z,1296.00
2022-10-19T13:46:54.145Z,1324.00
2022-10-19T13:47:53.931Z,1368.00
2022-10-19T13:48:53.915Z,1396.00
2022-10-19T13:49:53.957Z,1400.00
2022-10-19T13:50:53.887Z,1400.00
2022-10-19T13:51:53.934Z,1396.00
2022-10-19T13:52:53.878Z,1396.00
2022-10-19T13:53:53.867Z,1400.00
2022-10-19T13:54:53.898Z,1412.00
2022-10-19T13:55:53.879Z,1448.00
2022-10-19T13:56:53.891Z,1460.00
2022-10-19T13:57:55.312Z,1460.00
2022-10-19T13:58:53.856Z,1452.00
2022-10-19T13:59:53.845Z,1444.00
2022-10-19T14:00:53.837Z,1436.00
2022-10-19T14:01:53.838Z,1412.00
2022-10-19T14:02:53.821Z,1352.00
2022-10-19T14:03:53.827Z,1380.00
2022-10-19T14:04:53.798Z,1340.00
2022-10-19T14:05:53.804Z,1292.00
2022-10-19T14:06:53.973Z,1288.00
2022-10-19T14:07:53.772Z,1300.00
2022-10-19T14:08:53.860Z,1320.00
2022-10-19T14:09:53.768Z,1292.00
2022-10-19T14:11:01.078Z,1256.00
2022-10-19T14:11:53.736Z,1252.00
2022-10-19T14:12:53.738Z,1244.00
2022-10-19T14:13:53.726Z,1220.00
2022-10-19T14:14:53.879Z,1184.00
2022-10-19T14:15:53.695Z,1168.00
2022-10-19T14:16:56.003Z,1148.00
2022-10-19T14:17:53.680Z,1116.00
2022-10-19T14:18:53.682Z,1072.00
2022-10-19T14:19:53.669Z,1032.00
2022-10-19T14:20:53.654Z,992.00
2022-10-19T14:21:53.677Z,952.00
2022-10-19T14:22:53.656Z,916.00
2022-10-19T14:23:53.627Z,888.00
2022-10-19T14:24:53.631Z,876.00
2022-10-19T14:25:53.643Z,872.00
2022-10-19T14:26:53.634Z,876.00
2022-10-19T14:27:53.599Z,876.00
2022-10-19T14:28:53.607Z,876.00
2022-10-19T14:29:53.616Z,868.00
2022-10-19T14:30:53.792Z,856.00
2022-10-19T14:31:53.572Z,844.00
2022-10-19T14:32:55.704Z,828.00
2022-10-19T14:33:53.536Z,836.00
2022-10-19T14:34:53.631Z,824.00
2022-10-19T14:35:53.744Z,788.00
2022-10-19T14:36:53.534Z,780.00
2022-10-19T14:37:53.511Z,756.00
2022-10-19T14:38:53.771Z,732.00
2022-10-19T14:39:53.499Z,692.00
2022-10-19T14:40:53.550Z,664.00
2022-10-19T14:41:53.680Z,644.00
2022-10-19T14:42:53.468Z,636.00
2022-10-19T14:43:53.459Z,628.00
2022-10-19T14:44:53.443Z,620.00
2022-10-19T14:45:53.440Z,612.00
2022-10-19T14:46:53.421Z,588.00
2022-10-19T14:47:53.443Z,568.00
2022-10-19T14:48:53.406Z,564.00
2022-10-19T14:49:53.403Z,580.00
2022-10-19T14:50:53.405Z,592.00
2022-10-19T14:51:53.406Z,584.00
2022-10-19T14:52:53.599Z,580.00
2022-10-19T14:53:53.376Z,576.00
2022-10-19T14:54:53.354Z,572.00
2022-10-19T14:55:53.342Z,564.00
2022-10-19T14:56:53.508Z,552.00
2022-10-19T14:57:53.331Z,532.00
2022-10-19T14:58:53.324Z,512.00
2022-10-19T14:59:53.314Z,504.00
2022-10-19T15:00:53.335Z,492.00
2022-10-19T15:01:53.389Z,484.00
2022-10-19T15:02:53.320Z,480.00
2022-10-19T15:03:53.544Z,468.00
2022-10-19T15:04:53.311Z,452.00
2022-10-19T15:05:53.275Z,444.00
2022-10-19T15:06:53.344Z,436.00
2022-10-19T15:07:53.275Z,428.00
2022-10-19T15:09:53.243Z,416.00
2022-10-19T15:10:53.304Z,408.00
2022-10-19T15:11:53.224Z,400.00
2022-10-19T15:12:53.186Z,396.00
2022-10-19T15:13:53.198Z,384.00
2022-10-19T15:14:53.216Z,364.00
2022-10-19T15:15:53.190Z,356.00
2022-10-19T15:16:53.266Z,352.00
2022-10-19T15:17:53.196Z,348.00
2022-10-19T15:18:53.429Z,352.00
2022-10-19T15:19:53.168Z,344.00
2022-10-19T15:21:11.319Z,340.00
2022-10-19T15:21:53.130Z,340.00
2022-10-19T15:22:53.135Z,332.00
2022-10-19T15:23:53.128Z,332.00
2022-10-19T15:24:53.105Z,324.00
2022-10-19T15:25:53.095Z,320.00
2022-10-19T15:27:06.635Z,316.00
2022-10-19T15:27:53.104Z,304.00
2022-10-19T15:28:53.106Z,304.00
2022-10-19T15:29:53.298Z,304.00
2022-10-19T15:30:53.045Z,288.00
2022-10-19T15:31:53.024Z,280.00
2022-10-19T15:32:53.050Z,284.00
2022-10-19T15:33:53.054Z,296.00
2022-10-19T15:34:53.027Z,304.00
2022-10-19T15:35:53.097Z,296.00
2022-10-19T15:36:52.985Z,288.00
2022-10-19T15:37:53.216Z,276.00
2022-10-19T15:38:54.252Z,256.00
2022-10-19T15:39:52.951Z,240.00
2022-10-19T15:40:52.941Z,220.00
2022-10-19T15:41:52.993Z,204.00
2022-10-19T15:42:52.975Z,184.00
2022-10-19T15:43:52.961Z,168.00
2022-10-19T15:44:52.946Z,156.00
2022-10-19T15:45:52.960Z,144.00
2022-10-19T15:46:52.902Z,140.00
2022-10-19T15:47:52.903Z,132.00
2022-10-19T15:48:55.280Z,128.00
2022-10-19T15:49:52.885Z,124.00
2022-10-19T15:50:52.889Z,116.00
2022-10-19T15:51:53.041Z,112.00
2022-10-19T15:52:52.845Z,108.00
2022-10-19T15:53:52.827Z,100.00
2022-10-19T15:54:52.853Z,100.00
2022-10-19T15:55:52.841Z,96.00
2022-10-19T15:56:52.821Z,88.00
2022-10-19T15:57:52.801Z,80.00
2022-10-19T15:58:52.811Z,76.00
2022-10-19T15:59:52.784Z,72.00
2022-10-19T16:00:52.768Z,68.00
2022-10-19T16:01:56.132Z,64.00
2022-10-19T16:02:52.755Z,60.00
2022-10-19T16:03:52.741Z,56.00
2022-10-19T16:04:52.818Z,52.00
2022-10-19T16:05:52.723Z,48.00
2022-10-19T16:06:52.725Z,44.00
2022-10-19T16:07:52.749Z,40.00
2022-10-19T16:08:52.738Z,36.00
2022-10-19T16:09:52.700Z,36.00
2022-10-19T16:10:52.702Z,32.00
2022-10-19T16:11:52.722Z,28.00
2022-10-19T16:12:52.670Z,24.00
2022-10-19T16:13:52.654Z,20.00
2022-10-19T16:14:52.633Z,20.00
2022-10-19T16:16:01.395Z,16.00
2022-10-19T16:16:52.628Z,16.00
2022-10-19T16:17:52.689Z,16.00
2022-10-19T16:18:52.811Z,12.00
2022-10-19T16:19:52.591Z,12.00
2022-10-19T16:20:52.603Z,8.00
2022-10-19T16:21:52.580Z,8.00
2022-10-19T16:22:52.762Z,8.00
2022-10-19T16:23:52.607Z,8.00
2022-10-19T16:24:52.547Z,4.00
2022-10-19T16:25:52.749Z,8.00
2022-10-19T16:26:52.743Z,4.00
2022-10-19T16:27:52.521Z,4.00
2022-10-19T16:28:52.511Z,4.00
2022-10-19T16:29:52.496Z,4.00
2022-10-19T16:30:52.490Z,0.00
2022-10-19T16:31:52.525Z,0.00
2022-10-19T16:32:52.493Z,4.00
2022-10-19T16:33:52.474Z,0.00
2022-10-19T16:34:52.462Z,0.00
2022-10-19T16:35:52.469Z,0.00
2022-10-19T16:36:52.431Z,0.00
2022-10-19T16:37:52.434Z,0.00
2022-10-19T16:38:52.431Z,0.00
2022-10-19T16:39:52.454Z,0.00
2022-10-19T16:40:52.400Z,0.00
2022-10-19T16:41:52.402Z,0.00
2022-10-19T16:42:52.378Z,0.00
2022-10-19T16:43:52.383Z,0.00
2022-10-19T16:44:52.378Z,0.00
2022-10-19T16:45:52.351Z,0.00
2022-10-19T16:46:52.357Z,0.00
2022-10-19T16:47:52.338Z,0.00
2022-10-19T16:48:52.345Z,0.00
2022-10-19T16:49:52.331Z,0.00
2022-10-19T16:50:52.337Z,0.00
2022-10-19T16:51:54.876Z,0.00
2022-10-19T16:52:52.294Z,0.00
2022-10-19T16:53:52.278Z,0.00
2022-10-19T16:54:52.308Z,0.00
2022-10-19T16:55:52.291Z,0.00
2022-10-19T16:56:52.261Z,0.00
2022-10-19T16:57:52.246Z,0.00
2022-10-19T16:58:52.251Z,0.00
2022-10-19T17:00:52.218Z,0.00
2022-10-19T17:01:52.296Z,0.00
2022-10-19T17:02:52.284Z,0.00
2022-10-19T17:03:52.194Z,0.00
2022-10-19T17:04:52.175Z,0.00
2022-10-19T17:05:52.172Z,0.00
2022-10-19T17:06:52.154Z,0.00
2022-10-19T17:07:52.145Z,0.00
2022-10-19T17:09:23.641Z,0.00
2022-10-19T17:09:54.749Z,0.00
2022-10-19T17:10:52.123Z,0.00
2022-10-19T17:11:52.137Z,0.00
2022-10-19T17:12:52.102Z,0.00
2022-10-19T17:13:52.104Z,0.00
2022-10-19T17:14:52.282Z,0.00
2022-10-19T17:15:52.102Z,0.00
2022-10-19T17:16:52.074Z,0.00
2022-10-19T17:17:52.260Z,0.00
2022-10-19T17:18:52.039Z,0.00
2022-10-19T17:19:52.037Z,0.00
2022-10-19T17:20:52.026Z,0.00
2022-10-19T17:21:52.010Z,0.00
2022-10-19T17:22:52.004Z,0.00
2022-10-19T17:23:52.020Z,0.00
2022-10-19T17:24:52.014Z,0.00
2022-10-19T17:25:52.060Z,0.00
2022-10-19T17:26:51.980Z,0.00
2022-10-19T17:27:51.990Z,0.00
2022-10-19T17:28:51.956Z,0.00
2022-10-19T17:29:51.958Z,0.00
2022-10-19T17:30:51.934Z,0.00
2022-10-19T17:31:52.136Z,0.00
2022-10-19T17:32:51.940Z,0.00
2022-10-19T17:33:51.921Z,0.00
2022-10-19T17:34:51.915Z,0.00
2022-10-19T17:35:51.946Z,0.00
2022-10-19T17:36:51.898Z,0.00
2022-10-19T17:37:51.903Z,0.00
2022-10-19T17:38:51.863Z,0.00
2022-10-19T17:39:51.869Z,0.00
2022-10-19T17:40:52.046Z,0.00
2022-10-19T17:41:51.896Z,0.00
2022-10-19T17:42:51.875Z,0.00
2022-10-19T17:43:51.863Z,0.00
2022-10-19T17:44:51.845Z,0.00
2022-10-19T17:45:51.795Z,0.00
2022-10-19T17:46:51.811Z,0.00
2022-10-19T17:47:51.782Z,0.00
2022-10-19T17:48:51.828Z,0.00
2022-10-19T17:49:51.769Z,0.00
2022-10-19T17:50:51.766Z,0.00
2022-10-19T17:51:51.758Z,0.00
2022-10-19T17:52:51.774Z,0.00
2022-10-19T17:53:51.741Z,0.00
2022-10-19T17:55:11.104Z,0.00
2022-10-19T17:55:51.746Z,0.00
2022-10-19T17:56:51.696Z,0.00
2022-10-19T17:57:51.742Z,0.00
2022-10-19T17:58:51.714Z,0.00
2022-10-19T17:59:52.764Z,0.00
2022-10-19T18:00:51.675Z,0.00
2022-10-19T18:01:51.845Z,0.00
2022-10-19T18:02:51.700Z,0.00
2022-10-19T18:03:51.641Z,0.00
2022-10-19T18:04:51.647Z,0.00
2022-10-19T18:05:51.654Z,0.00
2022-10-19T18:06:51.610Z,0.00
2022-10-19T18:07:51.611Z,0.00
2022-10-19T18:08:51.645Z,0.00
2022-10-19T18:09:51.585Z,0.00
2022-10-19T18:10:51.570Z,0.00
2022-10-19T18:11:51.596Z,0.00
2022-10-19T18:12:51.537Z,0.00
2022-10-19T18:13:51.735Z,0.00
2022-10-19T18:14:51.533Z,0.00
2022-10-19T18:15:51.526Z,0.00
2022-10-19T18:16:51.514Z,0.00
2022-10-19T18:17:51.492Z,0.00
2022-10-19T18:18:51.517Z,0.00
2022-10-19T18:19:51.467Z,0.00
2022-10-19T18:20:51.488Z,0.00
2022-10-19T18:21:51.485Z,0.00
2022-10-19T18:22:51.445Z,0.00
2022-10-19T18:23:51.439Z,0.00
2022-10-19T18:24:51.449Z,0.00
2022-10-19T18:25:54.354Z,0.00
2022-10-19T18:26:51.398Z,0.00
2022-10-19T18:27:51.616Z,0.00
2022-10-19T18:28:51.434Z,0.00
2022-10-19T18:29:51.387Z,0.00
2022-10-19T18:30:51.380Z,0.00
2022-10-19T18:31:51.709Z,0.00
2022-10-19T18:32:51.361Z,0.00
2022-10-19T18:33:51.356Z,0.00
2022-10-19T18:34:51.364Z,0.00
2022-10-19T18:35:51.326Z,0.00
2022-10-19T18:36:51.344Z,0.00
2022-10-19T18:37:51.295Z,0.00
2022-10-19T18:38:51.337Z,0.00
2022-10-19T18:39:51.317Z,0.00
2022-10-19T18:40:51.272Z,0.00
2022-10-19T18:41:51.255Z,0.00
2022-10-19T18:42:51.278Z,0.00
2022-10-19T18:43:51.232Z,0.00
2022-10-19T18:44:51.251Z,0.00
2022-10-19T18:45:51.220Z,0.00
2022-10-19T18:46:51.209Z,0.00
2022-10-19T18:47:51.231Z,0.00
2022-10-19T18:48:51.220Z,0.00
2022-10-19T18:49:51.238Z,0.00
2022-10-19T18:50:51.236Z,0.00
2022-10-19T18:51:55.034Z,0.00
2022-10-19T18:52:51.167Z,0.00
2022-10-19T18:53:51.151Z,0.00
2022-10-19T18:54:51.168Z,0.00
2022-10-19T18:55:51.145Z,0.00
2022-10-19T18:56:51.133Z,0.00
2022-10-19T18:57:51.099Z,0.00
2022-10-19T18:58:51.092Z,0.00
2022-10-19T18:59:51.084Z,0.00
2022-10-19T19:00:51.065Z,0.00
2022-10-19T19:01:51.164Z,0.00
2022-10-19T19:02:51.470Z,0.00
2022-10-19T19:03:51.078Z,0.00
2022-10-19T19:04:51.073Z,0.00
2022-10-19T19:05:51.043Z,0.00
2022-10-19T19:06:51.068Z,0.00
2022-10-19T19:07:51.021Z,0.00
2022-10-19T19:08:51.081Z,0.00
2022-10-19T19:09:50.989Z,0.00
2022-10-19T19:10:51.184Z,0.00
2022-10-19T19:11:50.979Z,0.00
2022-10-19T19:12:50.962Z,0.00
2022-10-19T19:13:51.017Z,0.00
2022-10-19T19:14:51.341Z,0.00
2022-10-19T19:15:50.926Z,0.00
2022-10-19T19:16:50.935Z,0.00
2022-10-19T19:17:50.923Z,0.00
2022-10-19T19:18:51.125Z,0.00
2022-10-19T19:19:50.905Z,0.00
2022-10-19T19:20:50.871Z,0.00
2022-10-19T19:21:50.862Z,0.00
2022-10-19T19:22:50.849Z,0.00
2022-10-19T19:23:50.860Z,0.00
2022-10-19T19:24:50.845Z,0.00
2022-10-19T19:25:50.853Z,0.00
2022-10-19T19:26:50.822Z,0.00
2022-10-19T19:27:50.818Z,0.00
2022-10-19T19:28:51.831Z,0.00
2022-10-19T19:29:50.793Z,0.00
2022-10-19T19:30:50.765Z,0.00
2022-10-19T19:31:50.812Z,0.00
2022-10-19T19:32:50.771Z,0.00
2022-10-19T19:33:50.830Z,0.00
2022-10-19T19:34:54.586Z,0.00
2022-10-19T19:35:50.777Z,0.00
2022-10-19T19:36:50.945Z,0.00
2022-10-19T19:37:50.788Z,0.00
2022-10-19T19:38:50.704Z,0.00
2022-10-19T19:39:50.677Z,0.00
2022-10-19T19:40:50.692Z,0.00
2022-10-19T19:41:50.670Z,0.00
2022-10-19T19:42:50.691Z,0.00
2022-10-19T19:43:50.657Z,0.00
2022-10-19T19:44:50.701Z,0.00
2022-10-19T19:45:50.691Z,0.00
2022-10-19T19:46:50.818Z,0.00
2022-10-19T19:47:50.598Z,0.00
2022-10-19T19:48:50.637Z,0.00
2022-10-19T19:49:50.609Z,0.00
2022-10-19T19:50:50.606Z,0.00
2022-10-19T19:51:50.637Z,0.00
2022-10-19T19:52:50.689Z,0.00
2022-10-19T19:53:50.574Z,0.00
2022-10-19T19:54:50.632Z,0.00
2022-10-19T19:55:50.528Z,0.00
2022-10-19T19:56:50.554Z,0.00
2022-10-19T19:57:50.521Z,0.00
2022-10-19T19:58:50.520Z,0.00
2022-10-19T19:59:50.475Z,0.00
2022-10-19T20:00:50.486Z,0.00
2022-10-19T20:01:50.604Z,0.00
2022-10-19T20:02:50.652Z,0.00
2022-10-19T20:03:50.503Z,0.00
2022-10-19T20:04:50.469Z,0.00
2022-10-19T20:05:50.514Z,0.00
2022-10-19T20:06:50.424Z,0.00
2022-10-19T20:07:50.463Z,0.00
2022-10-19T20:08:50.541Z,0.00
2022-10-19T20:09:50.393Z,0.00
2022-10-19T20:10:50.408Z,0.00